sensor_id;sensor_type;location;lat;lon;timestamp;P1;durP1;ratioP1;P2;durP2;ratioP2
438;SDS011;206;48.782;9.252;2022-12-29T00:01:44;5.03;;;4.40;;
438;SDS011;206;48.782;9.252;2022-12-29T00:04:11;6.73;;;5.20;;
438;SDS011;206;48.782;9.252;2022-12-29T00:06:38;6.97;;;4.57;;
438;SDS011;206;48.782;9.252;2022-12-29T00:09:03;5.80;;;4.50;;
438;SDS011;206;48.782;9.252;2022-12-29T00:11:29;10.53;;;4.90;;
438;SDS011;206;48.782;9.252;2022-12-29T00:13:55;6.50;;;4.93;;
438;SDS011;206;48.782;9.252;2022-12-29T00:16:43;7.77;;;4.90;;
438;SDS011;206;48.782;9.252;2022-12-29T00:19:10;6.73;;;4.83;;
438;SDS011;206;48.782;9.252;2022-12-29T00:21:56;5.40;;;4.43;;
438;SDS011;206;48.782;9.252;2022-12-29T00:24:42;6.73;;;5.50;;
438;SDS011;206;48.782;9.252;2022-12-29T00:27:27;5.50;;;4.80;;
438;SDS011;206;48.782;9.252;2022-12-29T00:30:13;6.20;;;4.87;;
438;SDS011;206;48.782;9.252;2022-12-29T00:32:59;7.77;;;5.43;;
438;SDS011;206;48.782;9.252;2022-12-29T00:35:45;7.30;;;5.30;;
438;SDS011;206;48.782;9.252;2022-12-29T00:38:17;6.63;;;5.37;;
438;SDS011;206;48.782;9.252;2022-12-29T00:41:01;5.37;;;4.20;;
438;SDS011;206;48.782;9.252;2022-12-29T00:43:45;7.20;;;5.77;;
438;SDS011;206;48.782;9.252;2022-12-29T00:46:29;6.77;;;5.17;;
438;SDS011;206;48.782;9.252;2022-12-29T00:48:55;9.23;;;5.30;;
438;SDS011;206;48.782;9.252;2022-12-29T00:51:40;8.47;;;5.13;;
438;SDS011;206;48.782;9.252;2022-12-29T00:54:05;6.77;;;5.23;;
438;SDS011;206;48.782;9.252;2022-12-29T00:56:31;7.83;;;6.17;;
438;SDS011;206;48.782;9.252;2022-12-29T00:59:02;7.13;;;5.00;;
438;SDS011;206;48.782;9.252;2022-12-29T01:01:29;5.60;;;4.70;;
438;SDS011;206;48.782;9.252;2022-12-29T01:03:55;5.03;;;4.73;;
438;SDS011;206;48.782;9.252;2022-12-29T01:06:21;6.93;;;5.50;;
438;SDS011;206;48.782;9.252;2022-12-29T01:08:48;5.63;;;4.53;;
438;SDS011;206;48.782;9.252;2022-12-29T01:11:37;7.00;;;4.87;;
438;SDS011;206;48.782;9.252;2022-12-29T01:14:03;7.10;;;5.30;;
438;SDS011;206;48.782;9.252;2022-12-29T01:16:29;6.17;;;5.17;;
438;SDS011;206;48.782;9.252;2022-12-29T01:18:55;6.63;;;5.90;;
438;SDS011;206;48.782;9.252;2022-12-29T01:21:20;8.33;;;4.60;;
438;SDS011;206;48.782;9.252;2022-12-29T01:23:46;5.77;;;5.13;;
438;SDS011;206;48.782;9.252;2022-12-29T01:26:12;7.70;;;4.40;;
438;SDS011;206;48.782;9.252;2022-12-29T01:28:40;6.47;;;4.60;;
438;SDS011;206;48.782;9.252;2022-12-29T01:31:10;6.10;;;4.37;;
438;SDS011;206;48.782;9.252;2022-12-29T01:33:38;4.80;;;4.13;;
438;SDS011;206;48.782;9.252;2022-12-29T01:36:04;6.10;;;4.60;;
438;SDS011;206;48.782;9.252;2022-12-29T01:38:32;5.53;;;4.23;;
438;SDS011;206;48.782;9.252;2022-12-29T01:40:58;10.70;;;3.67;;
438;SDS011;206;48.782;9.252;2022-12-29T01:43:40;4.27;;;3.83;;
438;SDS011;206;48.782;9.252;2022-12-29T01:46:30;6.07;;;4.80;;
438;SDS011;206;48.782;9.252;2022-12-29T01:49:21;4.60;;;3.90;;
438;SDS011;206;48.782;9.252;2022-12-29T01:51:50;6.03;;;5.50;;
438;SDS011;206;48.782;9.252;2022-12-29T01:54:26;9.90;;;5.23;;
438;SDS011;206;48.782;9.252;2022-12-29T01:56:59;6.90;;;4.80;;
438;SDS011;206;48.782;9.252;2022-12-29T01:59:30;5.50;;;4.13;;
438;SDS011;206;48.782;9.252;2022-12-29T02:01:59;7.30;;;5.20;;
438;SDS011;206;48.782;9.252;2022-12-29T02:04:26;12.13;;;5.43;;
438;SDS011;206;48.782;9.252;2022-12-29T02:06:59;5.60;;;5.00;;
438;SDS011;206;48.782;9.252;2022-12-29T02:09:32;4.80;;;3.93;;
438;SDS011;206;48.782;9.252;2022-12-29T02:11:58;10.77;;;5.37;;
438;SDS011;206;48.782;9.252;2022-12-29T02:14:24;4.53;;;3.73;;
438;SDS011;206;48.782;9.252;2022-12-29T02:23:04;4.40;;;3.23;;
438;SDS011;206;48.782;9.252;2022-12-29T02:34:19;5.30;;;3.57;;
438;SDS011;206;48.782;9.252;2022-12-29T02:42:35;4.33;;;3.97;;
438;SDS011;206;48.782;9.252;2022-12-29T02:45:13;7.13;;;3.37;;
438;SDS011;206;48.782;9.252;2022-12-29T02:47:49;3.70;;;2.93;;
438;SDS011;206;48.782;9.252;2022-12-29T02:50:27;4.40;;;2.87;;
438;SDS011;206;48.782;9.252;2022-12-29T02:53:05;3.43;;;2.40;;
438;SDS011;206;48.782;9.252;2022-12-29T02:55:47;3.20;;;2.47;;
438;SDS011;206;48.782;9.252;2022-12-29T02:58:15;3.70;;;2.30;;
438;SDS011;206;48.782;9.252;2022-12-29T03:00:56;2.83;;;2.60;;
438;SDS011;206;48.782;9.252;2022-12-29T03:08:57;5.03;;;2.13;;
438;SDS011;206;48.782;9.252;2022-12-29T03:11:42;3.43;;;2.27;;
438;SDS011;206;48.782;9.252;2022-12-29T03:17:54;3.33;;;2.33;;
438;SDS011;206;48.782;9.252;2022-12-29T03:20:26;5.10;;;2.93;;
438;SDS011;206;48.782;9.252;2022-12-29T03:23:01;2.47;;;2.20;;
438;SDS011;206;48.782;9.252;2022-12-29T03:25:30;3.00;;;2.70;;
438;SDS011;206;48.782;9.252;2022-12-29T03:28:00;3.57;;;2.40;;
438;SDS011;206;48.782;9.252;2022-12-29T03:30:30;5.80;;;1.97;;
438;SDS011;206;48.782;9.252;2022-12-29T03:32:59;4.50;;;2.47;;
438;SDS011;206;48.782;9.252;2022-12-29T03:35:33;3.40;;;1.90;;
438;SDS011;206;48.782;9.252;2022-12-29T03:38:23;5.30;;;2.40;;
438;SDS011;206;48.782;9.252;2022-12-29T03:41:00;3.40;;;2.17;;
438;SDS011;206;48.782;9.252;2022-12-29T03:43:30;4.03;;;1.40;;
438;SDS011;206;48.782;9.252;2022-12-29T03:45:55;5.10;;;2.20;;
438;SDS011;206;48.782;9.252;2022-12-29T03:48:21;2.13;;;1.43;;
438;SDS011;206;48.782;9.252;2022-12-29T03:50:47;2.20;;;2.00;;
438;SDS011;206;48.782;9.252;2022-12-29T03:53:12;5.23;;;1.40;;
438;SDS011;206;48.782;9.252;2022-12-29T03:55:38;2.17;;;1.57;;
438;SDS011;206;48.782;9.252;2022-12-29T03:58:04;3.23;;;1.43;;
438;SDS011;206;48.782;9.252;2022-12-29T04:00:29;4.20;;;1.67;;
438;SDS011;206;48.782;9.252;2022-12-29T04:02:55;3.93;;;1.50;;
438;SDS011;206;48.782;9.252;2022-12-29T04:05:21;4.00;;;1.83;;
438;SDS011;206;48.782;9.252;2022-12-29T04:07:46;3.20;;;1.33;;
438;SDS011;206;48.782;9.252;2022-12-29T04:10:12;1.40;;;1.30;;
438;SDS011;206;48.782;9.252;2022-12-29T04:12:37;1.03;;;0.93;;
438;SDS011;206;48.782;9.252;2022-12-29T04:15:03;2.10;;;1.20;;
438;SDS011;206;48.782;9.252;2022-12-29T04:17:29;2.47;;;1.40;;
438;SDS011;206;48.782;9.252;2022-12-29T04:19:55;2.10;;;1.30;;
438;SDS011;206;48.782;9.252;2022-12-29T04:22:40;2.23;;;1.17;;
438;SDS011;206;48.782;9.252;2022-12-29T04:25:06;1.17;;;0.93;;
438;SDS011;206;48.782;9.252;2022-12-29T04:27:32;2.43;;;1.40;;
438;SDS011;206;48.782;9.252;2022-12-29T04:29:57;1.90;;;1.43;;
438;SDS011;206;48.782;9.252;2022-12-29T04:32:23;1.53;;;1.33;;
438;SDS011;206;48.782;9.252;2022-12-29T04:34:50;1.80;;;1.33;;
438;SDS011;206;48.782;9.252;2022-12-29T04:37:15;2.63;;;1.10;;
438;SDS011;206;48.782;9.252;2022-12-29T04:39:41;2.20;;;1.10;;
438;SDS011;206;48.782;9.252;2022-12-29T04:42:06;1.37;;;0.90;;
438;SDS011;206;48.782;9.252;2022-12-29T04:44:32;4.80;;;1.50;;
438;SDS011;206;48.782;9.252;2022-12-29T04:46:57;6.70;;;1.60;;
438;SDS011;206;48.782;9.252;2022-12-29T04:49:23;2.27;;;1.23;;
438;SDS011;206;48.782;9.252;2022-12-29T04:51:48;1.93;;;1.03;;
438;SDS011;206;48.782;9.252;2022-12-29T04:54:14;4.07;;;1.50;;
438;SDS011;206;48.782;9.252;2022-12-29T04:56:39;2.13;;;1.23;;
438;SDS011;206;48.782;9.252;2022-12-29T04:59:05;5.80;;;3.80;;
438;SDS011;206;48.782;9.252;2022-12-29T05:01:31;1.47;;;1.37;;
438;SDS011;206;48.782;9.252;2022-12-29T05:03:56;2.10;;;1.47;;
438;SDS011;206;48.782;9.252;2022-12-29T05:06:22;3.00;;;1.40;;
438;SDS011;206;48.782;9.252;2022-12-29T05:08:47;1.67;;;1.60;;
438;SDS011;206;48.782;9.252;2022-12-29T05:11:13;2.50;;;1.27;;
438;SDS011;206;48.782;9.252;2022-12-29T05:13:38;6.70;;;1.37;;
438;SDS011;206;48.782;9.252;2022-12-29T05:16:04;4.57;;;1.53;;
438;SDS011;206;48.782;9.252;2022-12-29T05:18:30;2.13;;;1.40;;
438;SDS011;206;48.782;9.252;2022-12-29T05:20:55;1.50;;;1.30;;
438;SDS011;206;48.782;9.252;2022-12-29T05:23:21;2.47;;;1.77;;
438;SDS011;206;48.782;9.252;2022-12-29T05:25:47;3.37;;;1.43;;
438;SDS011;206;48.782;9.252;2022-12-29T05:28:13;3.10;;;1.30;;
438;SDS011;206;48.782;9.252;2022-12-29T05:30:39;5.43;;;1.47;;
438;SDS011;206;48.782;9.252;2022-12-29T05:33:04;2.07;;;1.30;;
438;SDS011;206;48.782;9.252;2022-12-29T05:35:31;1.33;;;1.20;;
438;SDS011;206;48.782;9.252;2022-12-29T05:37:57;1.13;;;1.07;;
438;SDS011;206;48.782;9.252;2022-12-29T05:40:23;1.77;;;1.47;;
438;SDS011;206;48.782;9.252;2022-12-29T05:42:49;2.50;;;1.53;;
438;SDS011;206;48.782;9.252;2022-12-29T05:45:14;2.40;;;1.10;;
438;SDS011;206;48.782;9.252;2022-12-29T05:47:40;1.57;;;1.20;;
438;SDS011;206;48.782;9.252;2022-12-29T05:50:06;5.30;;;1.47;;
438;SDS011;206;48.782;9.252;2022-12-29T05:52:31;2.30;;;1.27;;
438;SDS011;206;48.782;9.252;2022-12-29T05:54:57;2.57;;;1.30;;
438;SDS011;206;48.782;9.252;2022-12-29T05:57:23;1.77;;;1.33;;
438;SDS011;206;48.782;9.252;2022-12-29T05:59:48;1.27;;;1.20;;
438;SDS011;206;48.782;9.252;2022-12-29T06:02:14;3.90;;;1.50;;
438;SDS011;206;48.782;9.252;2022-12-29T06:04:39;4.33;;;1.70;;
438;SDS011;206;48.782;9.252;2022-12-29T06:07:05;5.63;;;1.50;;
438;SDS011;206;48.782;9.252;2022-12-29T06:09:30;10.17;;;1.50;;
438;SDS011;206;48.782;9.252;2022-12-29T06:11:56;3.37;;;2.13;;
438;SDS011;206;48.782;9.252;2022-12-29T06:14:21;3.40;;;1.73;;
438;SDS011;206;48.782;9.252;2022-12-29T06:16:47;1.50;;;1.33;;
438;SDS011;206;48.782;9.252;2022-12-29T06:19:13;2.50;;;1.10;;
438;SDS011;206;48.782;9.252;2022-12-29T06:21:39;1.33;;;0.90;;
438;SDS011;206;48.782;9.252;2022-12-29T06:24:04;1.83;;;1.40;;
438;SDS011;206;48.782;9.252;2022-12-29T06:26:30;1.90;;;1.70;;
438;SDS011;206;48.782;9.252;2022-12-29T06:28:56;2.53;;;1.50;;
438;SDS011;206;48.782;9.252;2022-12-29T06:31:21;2.70;;;1.73;;
438;SDS011;206;48.782;9.252;2022-12-29T06:33:47;3.00;;;1.40;;
438;SDS011;206;48.782;9.252;2022-12-29T06:36:12;2.77;;;2.27;;
438;SDS011;206;48.782;9.252;2022-12-29T06:38:38;1.87;;;1.53;;
438;SDS011;206;48.782;9.252;2022-12-29T06:41:04;3.83;;;1.37;;
438;SDS011;206;48.782;9.252;2022-12-29T06:43:29;2.23;;;1.70;;
438;SDS011;206;48.782;9.252;2022-12-29T06:45:55;1.80;;;1.50;;
438;SDS011;206;48.782;9.252;2022-12-29T06:48:21;4.10;;;1.60;;
438;SDS011;206;48.782;9.252;2022-12-29T06:50:46;2.00;;;1.40;;
438;SDS011;206;48.782;9.252;2022-12-29T06:53:12;2.57;;;1.50;;
438;SDS011;206;48.782;9.252;2022-12-29T06:55:37;5.53;;;1.60;;
438;SDS011;206;48.782;9.252;2022-12-29T06:58:03;2.00;;;1.40;;
438;SDS011;206;48.782;9.252;2022-12-29T07:00:29;3.17;;;1.43;;
438;SDS011;206;48.782;9.252;2022-12-29T07:02:55;4.00;;;2.03;;
438;SDS011;206;48.782;9.252;2022-12-29T07:05:22;6.63;;;1.70;;
438;SDS011;206;48.782;9.252;2022-12-29T07:07:49;2.00;;;1.70;;
438;SDS011;206;48.782;9.252;2022-12-29T07:10:15;6.60;;;1.73;;
438;SDS011;206;48.782;9.252;2022-12-29T07:12:41;2.30;;;1.50;;
438;SDS011;206;48.782;9.252;2022-12-29T07:15:06;1.97;;;1.40;;
438;SDS011;206;48.782;9.252;2022-12-29T07:17:32;3.20;;;1.47;;
438;SDS011;206;48.782;9.252;2022-12-29T07:19:58;2.17;;;1.80;;
438;SDS011;206;48.782;9.252;2022-12-29T07:22:23;7.57;;;2.23;;
438;SDS011;206;48.782;9.252;2022-12-29T07:24:49;4.83;;;1.50;;
438;SDS011;206;48.782;9.252;2022-12-29T07:27:14;1.80;;;1.13;;
438;SDS011;206;48.782;9.252;2022-12-29T07:29:40;3.87;;;1.70;;
438;SDS011;206;48.782;9.252;2022-12-29T07:32:06;1.90;;;1.47;;
438;SDS011;206;48.782;9.252;2022-12-29T07:34:31;1.90;;;1.60;;
438;SDS011;206;48.782;9.252;2022-12-29T07:36:57;3.40;;;2.10;;
438;SDS011;206;48.782;9.252;2022-12-29T07:39:22;2.90;;;1.60;;
438;SDS011;206;48.782;9.252;2022-12-29T07:41:48;3.30;;;1.90;;
438;SDS011;206;48.782;9.252;2022-12-29T07:44:13;3.50;;;2.00;;
438;SDS011;206;48.782;9.252;2022-12-29T07:46:39;3.20;;;1.80;;
438;SDS011;206;48.782;9.252;2022-12-29T07:49:05;3.60;;;1.87;;
438;SDS011;206;48.782;9.252;2022-12-29T07:51:30;10.00;;;3.97;;
438;SDS011;206;48.782;9.252;2022-12-29T07:53:57;3.83;;;2.40;;
438;SDS011;206;48.782;9.252;2022-12-29T07:56:25;4.00;;;1.70;;
438;SDS011;206;48.782;9.252;2022-12-29T07:58:50;3.30;;;1.97;;
438;SDS011;206;48.782;9.252;2022-12-29T08:01:16;4.43;;;1.83;;
438;SDS011;206;48.782;9.252;2022-12-29T08:03:41;1.87;;;1.37;;
438;SDS011;206;48.782;9.252;2022-12-29T08:06:10;2.90;;;1.90;;
438;SDS011;206;48.782;9.252;2022-12-29T08:08:36;10.90;;;2.23;;
438;SDS011;206;48.782;9.252;2022-12-29T08:11:03;2.30;;;1.73;;
438;SDS011;206;48.782;9.252;2022-12-29T08:13:28;3.10;;;2.67;;
438;SDS011;206;48.782;9.252;2022-12-29T08:15:54;3.37;;;2.07;;
438;SDS011;206;48.782;9.252;2022-12-29T08:18:20;3.40;;;2.20;;
438;SDS011;206;48.782;9.252;2022-12-29T08:20:45;2.50;;;1.47;;
438;SDS011;206;48.782;9.252;2022-12-29T08:23:11;2.80;;;2.00;;
438;SDS011;206;48.782;9.252;2022-12-29T08:25:36;2.20;;;2.03;;
438;SDS011;206;48.782;9.252;2022-12-29T08:28:02;5.63;;;2.47;;
438;SDS011;206;48.782;9.252;2022-12-29T08:30:27;2.60;;;1.63;;
438;SDS011;206;48.782;9.252;2022-12-29T08:32:53;2.97;;;2.77;;
438;SDS011;206;48.782;9.252;2022-12-29T08:35:19;2.47;;;1.50;;
438;SDS011;206;48.782;9.252;2022-12-29T08:37:44;2.43;;;1.97;;
438;SDS011;206;48.782;9.252;2022-12-29T08:40:10;2.70;;;1.80;;
438;SDS011;206;48.782;9.252;2022-12-29T08:42:35;2.40;;;2.10;;
438;SDS011;206;48.782;9.252;2022-12-29T08:45:01;3.13;;;2.17;;
438;SDS011;206;48.782;9.252;2022-12-29T08:47:27;2.13;;;1.97;;
438;SDS011;206;48.782;9.252;2022-12-29T08:49:53;3.20;;;1.53;;
438;SDS011;206;48.782;9.252;2022-12-29T08:52:18;3.90;;;1.90;;
438;SDS011;206;48.782;9.252;2022-12-29T08:54:44;2.37;;;2.07;;
438;SDS011;206;48.782;9.252;2022-12-29T08:57:09;3.20;;;2.30;;
438;SDS011;206;48.782;9.252;2022-12-29T08:59:35;1.60;;;1.50;;
438;SDS011;206;48.782;9.252;2022-12-29T09:02:01;2.00;;;1.27;;
438;SDS011;206;48.782;9.252;2022-12-29T09:04:27;2.20;;;1.27;;
438;SDS011;206;48.782;9.252;2022-12-29T09:06:52;2.00;;;1.40;;
438;SDS011;206;48.782;9.252;2022-12-29T09:09:18;3.70;;;1.20;;
438;SDS011;206;48.782;9.252;2022-12-29T09:11:44;1.10;;;1.10;;
438;SDS011;206;48.782;9.252;2022-12-29T09:14:10;1.83;;;1.23;;
438;SDS011;206;48.782;9.252;2022-12-29T09:16:36;2.97;;;1.70;;
438;SDS011;206;48.782;9.252;2022-12-29T09:19:02;1.60;;;1.43;;
438;SDS011;206;48.782;9.252;2022-12-29T09:21:28;2.13;;;1.60;;
438;SDS011;206;48.782;9.252;2022-12-29T09:23:54;10.73;;;6.53;;
438;SDS011;206;48.782;9.252;2022-12-29T09:26:19;2.73;;;1.33;;
438;SDS011;206;48.782;9.252;2022-12-29T09:28:45;2.47;;;1.80;;
438;SDS011;206;48.782;9.252;2022-12-29T09:31:12;4.13;;;1.63;;
438;SDS011;206;48.782;9.252;2022-12-29T09:33:37;4.80;;;1.77;;
438;SDS011;206;48.782;9.252;2022-12-29T09:36:03;3.40;;;1.90;;
438;SDS011;206;48.782;9.252;2022-12-29T09:38:29;4.00;;;1.80;;
438;SDS011;206;48.782;9.252;2022-12-29T09:41:05;11.00;;;1.90;;
438;SDS011;206;48.782;9.252;2022-12-29T09:46:26;3.03;;;1.67;;
438;SDS011;206;48.782;9.252;2022-12-29T09:51:23;3.63;;;3.00;;
438;SDS011;206;48.782;9.252;2022-12-29T09:53:55;1.80;;;1.40;;
438;SDS011;206;48.782;9.252;2022-12-29T09:56:24;6.97;;;1.93;;
438;SDS011;206;48.782;9.252;2022-12-29T09:59:11;2.93;;;2.40;;
438;SDS011;206;48.782;9.252;2022-12-29T10:01:59;3.83;;;1.60;;
438;SDS011;206;48.782;9.252;2022-12-29T10:04:36;2.90;;;1.60;;
438;SDS011;206;48.782;9.252;2022-12-29T10:07:33;2.50;;;1.60;;
438;SDS011;206;48.782;9.252;2022-12-29T10:13:20;2.37;;;1.23;;
438;SDS011;206;48.782;9.252;2022-12-29T10:18:54;3.33;;;1.60;;
438;SDS011;206;48.782;9.252;2022-12-29T10:24:50;2.75;;;1.75;;
438;SDS011;206;48.782;9.252;2022-12-29T10:27:19;3.90;;;1.43;;
438;SDS011;206;48.782;9.252;2022-12-29T10:29:50;1.80;;;1.47;;
438;SDS011;206;48.782;9.252;2022-12-29T10:32:32;3.07;;;1.30;;
438;SDS011;206;48.782;9.252;2022-12-29T10:35:05;1.97;;;1.47;;
438;SDS011;206;48.782;9.252;2022-12-29T10:37:41;3.20;;;1.33;;
438;SDS011;206;48.782;9.252;2022-12-29T10:40:18;3.83;;;1.90;;
438;SDS011;206;48.782;9.252;2022-12-29T10:42:58;3.47;;;1.53;;
438;SDS011;206;48.782;9.252;2022-12-29T10:45:25;3.67;;;1.87;;
438;SDS011;206;48.782;9.252;2022-12-29T10:50:35;1.73;;;1.63;;
438;SDS011;206;48.782;9.252;2022-12-29T10:53:07;5.93;;;2.13;;
438;SDS011;206;48.782;9.252;2022-12-29T10:55:37;2.40;;;2.10;;
438;SDS011;206;48.782;9.252;2022-12-29T10:58:07;3.93;;;1.63;;
438;SDS011;206;48.782;9.252;2022-12-29T11:00:37;4.50;;;1.73;;
438;SDS011;206;48.782;9.252;2022-12-29T11:03:27;3.38;;;2.13;;
438;SDS011;206;48.782;9.252;2022-12-29T11:06:12;9.63;;;4.63;;
438;SDS011;206;48.782;9.252;2022-12-29T11:11:24;2.07;;;1.50;;
438;SDS011;206;48.782;9.252;2022-12-29T11:14:41;2.10;;;1.57;;
438;SDS011;206;48.782;9.252;2022-12-29T11:17:01;5.27;;;2.23;;
438;SDS011;206;48.782;9.252;2022-12-29T11:19:29;2.43;;;1.90;;
438;SDS011;206;48.782;9.252;2022-12-29T11:22:13;2.20;;;1.90;;
438;SDS011;206;48.782;9.252;2022-12-29T11:24:45;3.40;;;1.73;;
438;SDS011;206;48.782;9.252;2022-12-29T11:27:14;2.47;;;1.40;;
438;SDS011;206;48.782;9.252;2022-12-29T11:29:45;3.53;;;2.30;;
438;SDS011;206;48.782;9.252;2022-12-29T11:34:42;7.20;;;1.73;;
438;SDS011;206;48.782;9.252;2022-12-29T11:37:14;2.03;;;1.73;;
438;SDS011;206;48.782;9.252;2022-12-29T11:39:56;4.23;;;1.80;;
438;SDS011;206;48.782;9.252;2022-12-29T11:42:23;5.67;;;2.33;;
438;SDS011;206;48.782;9.252;2022-12-29T11:45:15;1.63;;;1.50;;
438;SDS011;206;48.782;9.252;2022-12-29T11:47:49;2.83;;;1.50;;
438;SDS011;206;48.782;9.252;2022-12-29T11:50:18;1.97;;;1.60;;
438;SDS011;206;48.782;9.252;2022-12-29T11:52:47;2.63;;;2.10;;
438;SDS011;206;48.782;9.252;2022-12-29T11:55:21;4.40;;;0.93;;
438;SDS011;206;48.782;9.252;2022-12-29T11:57:50;3.27;;;1.73;;
438;SDS011;206;48.782;9.252;2022-12-29T12:00:21;2.30;;;1.20;;
438;SDS011;206;48.782;9.252;2022-12-29T12:02:56;2.43;;;1.30;;
438;SDS011;206;48.782;9.252;2022-12-29T12:11:08;2.50;;;1.63;;
438;SDS011;206;48.782;9.252;2022-12-29T12:16:33;1.53;;;1.40;;
438;SDS011;206;48.782;9.252;2022-12-29T12:19:28;1.57;;;1.33;;
438;SDS011;206;48.782;9.252;2022-12-29T12:22:43;4.80;;;1.27;;
438;SDS011;206;48.782;9.252;2022-12-29T12:27:36;3.40;;;1.53;;
438;SDS011;206;48.782;9.252;2022-12-29T12:30:12;5.33;;;1.87;;
438;SDS011;206;48.782;9.252;2022-12-29T12:35:16;3.27;;;1.40;;
438;SDS011;206;48.782;9.252;2022-12-29T12:45:52;2.73;;;1.40;;
438;SDS011;206;48.782;9.252;2022-12-29T12:51:44;2.70;;;1.70;;
438;SDS011;206;48.782;9.252;2022-12-29T13:00:22;2.10;;;1.90;;
438;SDS011;206;48.782;9.252;2022-12-29T13:11:13;3.70;;;1.60;;
438;SDS011;206;48.782;9.252;2022-12-29T13:19:34;2.73;;;2.03;;
438;SDS011;206;48.782;9.252;2022-12-29T13:32:49;2.73;;;2.43;;
438;SDS011;206;48.782;9.252;2022-12-29T13:35:28;4.30;;;2.40;;
438;SDS011;206;48.782;9.252;2022-12-29T13:38:22;3.80;;;1.80;;
438;SDS011;206;48.782;9.252;2022-12-29T13:40:56;3.10;;;2.40;;
438;SDS011;206;48.782;9.252;2022-12-29T13:43:37;3.50;;;2.60;;
438;SDS011;206;48.782;9.252;2022-12-29T13:46:19;2.13;;;1.80;;
438;SDS011;206;48.782;9.252;2022-12-29T13:48:53;4.10;;;2.23;;
438;SDS011;206;48.782;9.252;2022-12-29T13:51:23;1.53;;;1.20;;
438;SDS011;206;48.782;9.252;2022-12-29T14:01:58;2.90;;;1.13;;
438;SDS011;206;48.782;9.252;2022-12-29T14:04:27;2.43;;;1.40;;
438;SDS011;206;48.782;9.252;2022-12-29T14:06:59;4.40;;;2.60;;
438;SDS011;206;48.782;9.252;2022-12-29T14:09:47;2.07;;;1.60;;
438;SDS011;206;48.782;9.252;2022-12-29T14:15:04;3.17;;;1.80;;
438;SDS011;206;48.782;9.252;2022-12-29T14:17:32;2.30;;;2.10;;
438;SDS011;206;48.782;9.252;2022-12-29T14:19:58;2.13;;;2.00;;
438;SDS011;206;48.782;9.252;2022-12-29T14:22:24;3.07;;;1.97;;
438;SDS011;206;48.782;9.252;2022-12-29T14:24:51;1.83;;;1.80;;
438;SDS011;206;48.782;9.252;2022-12-29T14:29:43;3.57;;;1.90;;
438;SDS011;206;48.782;9.252;2022-12-29T14:34:45;3.00;;;1.70;;
438;SDS011;206;48.782;9.252;2022-12-29T14:37:44;2.40;;;1.70;;
438;SDS011;206;48.782;9.252;2022-12-29T14:40:17;1.73;;;1.40;;
438;SDS011;206;48.782;9.252;2022-12-29T14:42:45;4.10;;;2.10;;
438;SDS011;206;48.782;9.252;2022-12-29T14:50:13;3.30;;;1.67;;
438;SDS011;206;48.782;9.252;2022-12-29T14:52:46;1.93;;;1.60;;
438;SDS011;206;48.782;9.252;2022-12-29T14:58:14;3.13;;;2.43;;
438;SDS011;206;48.782;9.252;2022-12-29T15:00:41;3.10;;;1.87;;
438;SDS011;206;48.782;9.252;2022-12-29T15:03:10;2.90;;;1.93;;
438;SDS011;206;48.782;9.252;2022-12-29T15:05:54;3.00;;;1.70;;
438;SDS011;206;48.782;9.252;2022-12-29T15:08:24;2.20;;;1.80;;
438;SDS011;206;48.782;9.252;2022-12-29T15:10:54;2.23;;;1.83;;
438;SDS011;206;48.782;9.252;2022-12-29T15:13:31;3.77;;;1.87;;
438;SDS011;206;48.782;9.252;2022-12-29T15:15:59;3.17;;;1.70;;
438;SDS011;206;48.782;9.252;2022-12-29T15:18:26;6.33;;;1.80;;
438;SDS011;206;48.782;9.252;2022-12-29T15:20:57;2.63;;;1.87;;
438;SDS011;206;48.782;9.252;2022-12-29T15:23:24;5.30;;;3.33;;
438;SDS011;206;48.782;9.252;2022-12-29T15:25:58;2.10;;;1.97;;
438;SDS011;206;48.782;9.252;2022-12-29T15:28:36;3.63;;;2.20;;
438;SDS011;206;48.782;9.252;2022-12-29T15:31:04;2.03;;;1.90;;
438;SDS011;206;48.782;9.252;2022-12-29T15:33:36;3.37;;;1.77;;
438;SDS011;206;48.782;9.252;2022-12-29T15:36:05;2.00;;;1.80;;
438;SDS011;206;48.782;9.252;2022-12-29T15:38:39;6.73;;;3.10;;
438;SDS011;206;48.782;9.252;2022-12-29T15:41:06;4.10;;;2.53;;
438;SDS011;206;48.782;9.252;2022-12-29T15:43:46;4.10;;;2.47;;
438;SDS011;206;48.782;9.252;2022-12-29T15:46:32;4.10;;;2.20;;
438;SDS011;206;48.782;9.252;2022-12-29T15:48:58;3.67;;;2.50;;
438;SDS011;206;48.782;9.252;2022-12-29T15:51:33;3.30;;;2.83;;
438;SDS011;206;48.782;9.252;2022-12-29T15:54:02;4.97;;;2.60;;
438;SDS011;206;48.782;9.252;2022-12-29T15:56:29;3.10;;;2.17;;
438;SDS011;206;48.782;9.252;2022-12-29T15:58:56;2.20;;;1.70;;
438;SDS011;206;48.782;9.252;2022-12-29T16:01:42;4.20;;;1.93;;
438;SDS011;206;48.782;9.252;2022-12-29T16:04:08;2.80;;;1.47;;
438;SDS011;206;48.782;9.252;2022-12-29T16:06:38;2.67;;;1.03;;
438;SDS011;206;48.782;9.252;2022-12-29T16:09:15;2.50;;;1.53;;
438;SDS011;206;48.782;9.252;2022-12-29T16:11:44;1.10;;;0.83;;
438;SDS011;206;48.782;9.252;2022-12-29T16:14:15;0.90;;;0.70;;
438;SDS011;206;48.782;9.252;2022-12-29T16:16:44;2.03;;;1.03;;
438;SDS011;206;48.782;9.252;2022-12-29T16:19:12;2.70;;;1.23;;
438;SDS011;206;48.782;9.252;2022-12-29T16:21:43;2.93;;;1.80;;
438;SDS011;206;48.782;9.252;2022-12-29T16:24:14;2.67;;;1.90;;
438;SDS011;206;48.782;9.252;2022-12-29T16:26:50;1.50;;;1.20;;
438;SDS011;206;48.782;9.252;2022-12-29T16:29:20;1.57;;;1.00;;
438;SDS011;206;48.782;9.252;2022-12-29T16:37:03;1.23;;;0.87;;
438;SDS011;206;48.782;9.252;2022-12-29T16:39:31;2.80;;;1.00;;
438;SDS011;206;48.782;9.252;2022-12-29T16:42:01;1.07;;;0.80;;
438;SDS011;206;48.782;9.252;2022-12-29T16:44:46;2.07;;;1.93;;
438;SDS011;206;48.782;9.252;2022-12-29T16:49:39;0.83;;;0.70;;
438;SDS011;206;48.782;9.252;2022-12-29T16:52:13;3.70;;;2.87;;
438;SDS011;206;48.782;9.252;2022-12-29T16:54:47;2.70;;;1.30;;
438;SDS011;206;48.782;9.252;2022-12-29T16:57:24;3.87;;;1.30;;
438;SDS011;206;48.782;9.252;2022-12-29T16:59:54;1.37;;;1.07;;
438;SDS011;206;48.782;9.252;2022-12-29T17:02:23;1.87;;;1.00;;
438;SDS011;206;48.782;9.252;2022-12-29T17:04:52;3.60;;;0.90;;
438;SDS011;206;48.782;9.252;2022-12-29T17:07:25;1.80;;;1.07;;
438;SDS011;206;48.782;9.252;2022-12-29T17:09:52;1.03;;;0.87;;
438;SDS011;206;48.782;9.252;2022-12-29T17:12:23;2.87;;;1.27;;
438;SDS011;206;48.782;9.252;2022-12-29T17:14:56;1.60;;;1.20;;
438;SDS011;206;48.782;9.252;2022-12-29T17:17:34;1.33;;;1.10;;
438;SDS011;206;48.782;9.252;2022-12-29T17:20:14;1.00;;;0.73;;
438;SDS011;206;48.782;9.252;2022-12-29T17:22:50;2.03;;;1.10;;
438;SDS011;206;48.782;9.252;2022-12-29T17:25:19;2.30;;;1.30;;
438;SDS011;206;48.782;9.252;2022-12-29T17:27:47;3.30;;;0.90;;
438;SDS011;206;48.782;9.252;2022-12-29T17:30:19;1.27;;;1.20;;
438;SDS011;206;48.782;9.252;2022-12-29T17:33:03;1.37;;;0.90;;
438;SDS011;206;48.782;9.252;2022-12-29T17:35:30;1.73;;;1.03;;
438;SDS011;206;48.782;9.252;2022-12-29T17:37:56;4.20;;;1.10;;
438;SDS011;206;48.782;9.252;2022-12-29T17:40:23;1.00;;;0.70;;
438;SDS011;206;48.782;9.252;2022-12-29T17:42:52;1.40;;;1.10;;
438;SDS011;206;48.782;9.252;2022-12-29T17:47:55;4.90;;;2.10;;
438;SDS011;206;48.782;9.252;2022-12-29T17:50:24;2.33;;;1.77;;
438;SDS011;206;48.782;9.252;2022-12-29T17:52:55;2.77;;;1.70;;
438;SDS011;206;48.782;9.252;2022-12-29T17:55:23;1.43;;;1.40;;
438;SDS011;206;48.782;9.252;2022-12-29T17:57:50;3.83;;;2.00;;
438;SDS011;206;48.782;9.252;2022-12-29T18:00:17;1.33;;;1.17;;
438;SDS011;206;48.782;9.252;2022-12-29T18:02:44;2.77;;;2.10;;
438;SDS011;206;48.782;9.252;2022-12-29T18:05:21;5.13;;;1.93;;
438;SDS011;206;48.782;9.252;2022-12-29T18:07:48;1.80;;;1.57;;
438;SDS011;206;48.782;9.252;2022-12-29T18:10:18;1.83;;;1.77;;
438;SDS011;206;48.782;9.252;2022-12-29T18:12:45;2.67;;;1.63;;
438;SDS011;206;48.782;9.252;2022-12-29T18:15:17;5.07;;;2.83;;
438;SDS011;206;48.782;9.252;2022-12-29T18:17:46;7.80;;;4.20;;
438;SDS011;206;48.782;9.252;2022-12-29T18:20:12;6.17;;;3.30;;
438;SDS011;206;48.782;9.252;2022-12-29T18:22:38;2.87;;;2.30;;
438;SDS011;206;48.782;9.252;2022-12-29T18:28:06;3.50;;;1.33;;
438;SDS011;206;48.782;9.252;2022-12-29T18:30:31;3.27;;;1.80;;